Time;durP1;ratioP1;P1;durP2;ratioP2;P2;SDS_P1;SDS_P2;PMS_P1;PMS_P2;Temp;Humidity;BMP_temperature;BMP_pressure;BME280_temperature;BME280_humidity;BME280_pressure;Samples;Min_cycle;Max_cycle;Signal;HPM_P1;HPM_P2
2022/04/22 00:02:12;;;;;;;25.88;17.98;;;8.30;99.90;;;;;;5097586;28;20046;-65
2022/04/22 00:04:39;;;;;;;27.60;18.67;;;8.30;99.90;;;;;;5094460;28;20071;-64
2022/04/22 00:07:07;;;;;;;30.77;20.92;;;8.40;99.90;;;;;;5088974;28;20067;-64
2022/04/22 00:09:34;;;;;;;22.33;15.70;;;8.40;99.90;;;;;;5091002;28;20109;-65
2022/04/22 00:12:02;;;;;;;22.83;15.93;;;8.50;99.90;;;;;;5090612;28;20482;-66
2022/04/22 00:14:29;;;;;;;26.05;16.42;;;8.60;99.90;;;;;;5089544;28;20052;-66
2022/04/22 00:16:56;;;;;;;22.13;15.40;;;8.60;99.90;;;;;;5100487;28;20100;-67
2022/04/22 00:19:23;;;;;;;25.75;17.13;;;8.60;99.90;;;;;;5095536;28;20040;-66
2022/04/22 00:21:53;;;;;;;24.80;16.98;;;8.70;99.90;;;;;;5107109;28;20557;-66
2022/04/22 00:24:20;;;;;;;23.00;15.85;;;8.70;99.90;;;;;;5106535;28;20394;-66
2022/04/22 00:26:47;;;;;;;24.90;16.42;;;8.80;99.90;;;;;;5109865;28;20035;-66
2022/04/22 00:29:15;;;;;;;22.70;15.80;;;8.80;99.90;;;;;;5103643;28;20533;-65
2022/04/22 00:31:42;;;;;;;26.15;17.77;;;8.80;99.90;;;;;;5109478;28;20119;-65
2022/04/22 00:34:09;;;;;;;24.65;16.83;;;8.80;99.90;;;;;;5109938;28;20462;-65
2022/04/22 00:36:37;;;;;;;23.73;15.88;;;8.80;99.90;;;;;;5109710;28;20051;-67
2022/04/22 00:39:05;;;;;;;24.65;17.10;;;8.80;99.90;;;;;;5110002;28;20515;-66
2022/04/22 00:41:32;;;;;;;24.42;16.55;;;8.80;99.90;;;;;;5108258;28;20575;-66
2022/04/22 00:43:59;;;;;;;21.15;15.07;;;8.80;99.90;;;;;;5109509;28;20134;-66
2022/04/22 00:46:26;;;;;;;25.10;16.98;;;8.70;99.90;;;;;;5110029;28;20663;-66
2022/04/22 00:48:54;;;;;;;25.52;17.73;;;8.70;99.90;;;;;;5110689;28;20542;-66
2022/04/22 00:51:22;;;;;;;24.20;16.77;;;8.70;99.90;;;;;;5109759;28;20066;-66
2022/04/22 00:53:52;;;;;;;23.15;16.10;;;8.60;99.90;;;;;;5110255;28;20056;-66
2022/04/22 00:56:19;;;;;;;23.95;16.42;;;8.60;99.90;;;;;;5102619;28;20054;-65
2022/04/22 00:58:49;;;;;;;23.65;17.00;;;8.50;99.90;;;;;;5111503;27;20432;-66
2022/04/22 01:01:17;;;;;;;28.92;17.92;;;8.40;99.90;;;;;;5093939;28;20444;-66
2022/04/22 01:12:06;;;;;;;26.80;18.10;;;8.30;99.90;;;;;;5105514;28;20542;-66
2022/04/22 01:14:34;;;;;;;25.50;17.75;;;8.30;99.90;;;;;;5103138;28;20154;-66
2022/04/22 01:17:02;;;;;;;26.27;17.67;;;8.30;99.90;;;;;;5099427;28;20035;-66
2022/04/22 01:19:31;;;;;;;24.17;16.73;;;8.20;99.90;;;;;;5110532;28;20085;-65
2022/04/22 01:22:00;;;;;;;22.80;16.17;;;8.20;99.90;;;;;;5107888;28;20071;-66
2022/04/22 01:24:27;;;;;;;28.02;18.52;;;8.10;99.90;;;;;;5109865;28;20035;-66
2022/04/22 01:26:56;;;;;;;27.10;17.15;;;8.10;99.90;;;;;;5108036;28;20054;-65
2022/04/22 01:29:23;;;;;;;27.38;18.13;;;8.00;99.90;;;;;;5108003;28;20054;-66
2022/04/22 01:31:51;;;;;;;26.25;16.77;;;8.00;99.90;;;;;;5108979;28;20031;-65
2022/04/22 01:34:18;;;;;;;23.45;16.60;;;7.90;99.90;;;;;;5109908;28;20048;-66
2022/04/22 01:36:46;;;;;;;23.20;16.65;;;7.90;99.90;;;;;;5093322;28;20090;-66
2022/04/22 01:39:14;;;;;;;26.63;18.48;;;7.80;99.90;;;;;;5102129;28;20063;-65
2022/04/22 01:41:41;;;;;;;24.65;17.20;;;7.80;99.90;;;;;;5101946;28;20052;-65
2022/04/22 01:44:09;;;;;;;24.13;17.27;;;7.70;99.90;;;;;;5106700;28;20386;-65
2022/04/22 01:46:36;;;;;;;25.80;17.50;;;7.70;99.90;;;;;;5107264;28;20491;-66
2022/04/22 01:49:04;;;;;;;29.63;17.38;;;7.60;99.90;;;;;;5109746;28;20059;-65
2022/04/22 01:51:32;;;;;;;23.50;16.50;;;7.60;99.90;;;;;;5109522;28;20044;-66
2022/04/22 01:53:59;;;;;;;25.55;16.38;;;7.50;99.90;;;;;;5102213;28;20506;-65
2022/04/22 01:56:26;;;;;;;23.80;16.77;;;7.50;99.90;;;;;;5100185;28;20040;-64
2022/04/22 01:58:54;;;;;;;25.52;17.48;;;7.50;99.90;;;;;;5107921;28;20116;-66
2022/04/22 02:01:21;;;;;;;24.75;16.73;;;7.50;99.90;;;;;;5090672;28;20543;-65
2022/04/22 02:03:48;;;;;;;23.90;15.77;;;7.40;99.90;;;;;;5088661;28;20056;-66
2022/04/22 02:06:16;;;;;;;25.20;17.25;;;7.30;99.90;;;;;;5086944;28;20032;-65
2022/04/22 02:08:44;;;;;;;26.85;18.13;;;7.30;99.90;;;;;;5089570;28;20104;-65
2022/04/22 02:11:11;;;;;;;22.55;16.60;;;7.30;99.90;;;;;;5088431;28;20368;-66
2022/04/22 02:13:38;;;;;;;24.83;16.65;;;7.30;99.90;;;;;;5093743;28;20543;-66
2022/04/22 02:16:07;;;;;;;27.48;17.83;;;7.20;99.90;;;;;;5087864;28;20123;-65
2022/04/22 02:18:39;;;;;;;26.38;16.75;;;7.30;99.90;;;;;;5089494;28;20510;-66
2022/04/22 02:21:08;;;;;;;22.65;15.45;;;7.20;99.90;;;;;;5089514;28;20517;-66
2022/04/22 02:23:36;;;;;;;25.05;17.25;;;7.20;99.90;;;;;;5091927;28;20149;-65
2022/04/22 02:26:04;;;;;;;24.85;17.02;;;7.20;99.90;;;;;;5109556;28;20166;-66
2022/04/22 02:28:32;;;;;;;26.88;17.63;;;7.10;99.90;;;;;;5090725;28;20079;-66
2022/04/22 02:31:10;;;;;;;25.60;16.58;;;7.10;99.90;;;;;;5096761;28;20059;-66
2022/04/22 02:33:39;;;;;;;24.40;16.40;;;7.10;99.90;;;;;;5092081;28;20036;-66
2022/04/22 02:36:07;;;;;;;24.95;16.63;;;7.10;99.90;;;;;;5096173;28;20062;-66
2022/04/22 02:38:35;;;;;;;24.80;17.17;;;7.10;99.90;;;;;;5107462;28;20039;-66
2022/04/22 02:46:36;;;;;;;21.77;15.07;;;7.00;99.90;;;;;;5091409;28;20542;-65
2022/04/22 02:49:03;;;;;;;25.70;17.15;;;7.00;99.90;;;;;;5104108;28;20439;-66
2022/04/22 02:51:31;;;;;;;24.80;16.85;;;7.00;99.90;;;;;;5107868;28;20140;-66
2022/04/22 02:53:58;;;;;;;23.42;15.45;;;6.90;99.90;;;;;;5112150;28;20052;-65
2022/04/22 02:56:27;;;;;;;28.23;17.25;;;6.90;99.90;;;;;;5101398;28;20391;-65
2022/04/22 02:58:55;;;;;;;25.50;16.95;;;6.90;99.90;;;;;;5112948;28;20453;-65
2022/04/22 03:01:23;;;;;;;25.17;16.42;;;6.80;99.90;;;;;;5095353;28;20048;-66
2022/04/22 03:03:50;;;;;;;26.85;17.17;;;6.80;99.90;;;;;;5091998;28;20483;-66
2022/04/22 03:06:18;;;;;;;27.05;15.98;;;6.80;99.90;;;;;;5092502;28;20505;-66
2022/04/22 03:08:45;;;;;;;24.30;15.63;;;6.80;99.90;;;;;;5091336;28;20044;-66
2022/04/22 03:11:21;;;;;;;27.40;17.45;;;6.70;99.90;;;;;;5105328;28;20044;-65
2022/04/22 03:13:52;;;;;;;25.20;16.65;;;6.70;99.90;;;;;;5098282;28;20042;-65
2022/04/22 03:16:24;;;;;;;24.48;16.33;;;6.70;99.90;;;;;;5095107;28;20072;-66
2022/04/22 03:18:52;;;;;;;25.08;15.35;;;6.60;99.90;;;;;;5111846;28;20032;-66
2022/04/22 03:21:20;;;;;;;25.42;16.40;;;6.60;99.90;;;;;;5106609;28;20461;-66
2022/04/22 03:23:47;;;;;;;26.65;17.33;;;6.60;99.90;;;;;;5114385;28;20040;-66
2022/04/22 03:26:15;;;;;;;26.15;17.42;;;6.60;99.90;;;;;;5093501;28;20104;-66
2022/04/22 03:28:42;;;;;;;26.88;17.95;;;6.60;99.90;;;;;;5100215;28;20048;-65
2022/04/22 03:31:10;;;;;;;27.75;17.40;;;6.60;99.90;;;;;;5107649;28;20036;-65
2022/04/22 03:33:37;;;;;;;23.02;15.63;;;6.60;99.90;;;;;;5114605;28;20070;-65
2022/04/22 03:36:05;;;;;;;23.90;15.93;;;6.60;99.90;;;;;;5114160;28;20043;-66
2022/04/22 03:38:32;;;;;;;24.13;15.50;;;6.50;99.90;;;;;;5112358;28;20051;-65
2022/04/22 03:40:59;;;;;;;23.63;15.90;;;6.50;99.90;;;;;;5113450;28;20135;-66
2022/04/22 03:43:27;;;;;;;25.70;17.27;;;6.50;99.90;;;;;;5109536;28;20531;-66
2022/04/22 03:45:55;;;;;;;22.65;15.30;;;6.50;99.90;;;;;;5111414;28;20043;-66
2022/04/22 03:48:23;;;;;;;23.50;15.77;;;6.40;99.90;;;;;;5111507;28;20096;-66
2022/04/22 03:50:50;;;;;;;25.55;17.52;;;6.40;99.90;;;;;;5110700;28;20111;-66
2022/04/22 03:53:17;;;;;;;27.45;17.13;;;6.30;99.90;;;;;;5112188;28;20352;-66
2022/04/22 03:55:45;;;;;;;24.00;16.17;;;6.30;99.90;;;;;;5100859;28;20059;-65
2022/04/22 03:58:16;;;;;;;24.30;16.38;;;6.30;99.90;;;;;;5113801;27;20089;-65
2022/04/22 04:00:48;;;;;;;25.65;17.13;;;6.30;99.90;;;;;;5099461;27;20047;-65
2022/04/22 04:03:21;;;;;;;25.17;17.77;;;6.30;99.90;;;;;;5092280;28;20054;-65
2022/04/22 04:05:50;;;;;;;25.95;16.77;;;6.30;99.90;;;;;;5090378;28;20032;-66
2022/04/22 04:08:22;;;;;;;29.88;18.27;;;6.30;99.90;;;;;;5108983;28;20043;-65
2022/04/22 04:16:21;;;;;;;27.35;18.52;;;6.20;99.90;;;;;;5094889;28;20040;-65
2022/04/22 04:18:49;;;;;;;26.08;17.35;;;6.20;99.90;;;;;;5093651;28;20410;-65
2022/04/22 04:24:03;;;;;;;29.58;17.63;;;6.20;99.90;;;;;;5110381;28;20419;-66
2022/04/22 04:26:30;;;;;;;28.45;17.38;;;6.30;99.90;;;;;;5108273;28;20051;-66
2022/04/22 04:28:57;;;;;;;32.97;20.85;;;6.30;99.90;;;;;;5100136;28;20044;-66
2022/04/22 04:31:24;;;;;;;30.30;18.83;;;6.40;99.90;;;;;;5109321;28;20559;-66
2022/04/22 04:33:52;;;;;;;25.52;17.35;;;6.40;99.90;;;;;;5110345;28;20035;-67
2022/04/22 04:36:19;;;;;;;27.77;17.20;;;6.40;99.90;;;;;;5103665;28;20044;-66
2022/04/22 04:38:47;;;;;;;25.75;17.48;;;6.50;99.90;;;;;;5110410;28;20047;-65
2022/04/22 04:41:14;;;;;;;27.40;17.00;;;6.60;99.90;;;;;;5107456;28;20350;-66
2022/04/22 04:43:42;;;;;;;28.58;18.23;;;6.70;99.90;;;;;;5110599;28;20097;-66
2022/04/22 04:46:09;;;;;;;30.65;20.05;;;6.80;99.90;;;;;;5108741;28;20043;-66
2022/04/22 04:48:37;;;;;;;26.42;16.95;;;6.90;99.90;;;;;;5108438;28;20039;-65
2022/04/22 04:51:05;;;;;;;28.10;18.40;;;7.10;99.90;;;;;;5105948;28;20518;-65
2022/04/22 04:53:33;;;;;;;27.45;16.63;;;7.30;99.90;;;;;;5090364;28;20564;-65
2022/04/22 04:56:00;;;;;;;30.75;18.52;;;7.40;99.90;;;;;;5092881;28;20036;-64
2022/04/22 04:58:27;;;;;;;25.02;15.90;;;7.50;99.90;;;;;;5098163;27;20103;-66
2022/04/22 05:00:55;;;;;;;25.92;16.77;;;7.60;99.90;;;;;;5092476;28;20560;-65
2022/04/22 05:03:22;;;;;;;24.35;15.40;;;7.70;99.90;;;;;;5100664;28;20040;-66
2022/04/22 05:05:50;;;;;;;25.05;15.45;;;7.70;99.90;;;;;;5095139;28;20040;-66
2022/04/22 05:08:17;;;;;;;24.15;15.85;;;7.80;99.90;;;;;;5091611;28;20472;-66
2022/04/22 05:10:44;;;;;;;22.95;14.48;;;7.90;99.90;;;;;;5095827;28;20040;-66
2022/04/22 05:13:11;;;;;;;26.05;16.27;;;7.90;99.90;;;;;;5108970;28;20513;-65
2022/04/22 05:15:39;;;;;;;25.55;15.07;;;7.90;99.90;;;;;;5095165;28;20568;-66
2022/04/22 05:18:06;;;;;;;24.27;15.88;;;8.00;99.90;;;;;;5092207;28;20119;-66
2022/04/22 05:20:34;;;;;;;26.58;17.02;;;8.00;99.90;;;;;;5103609;28;20459;-65
2022/04/22 05:23:01;;;;;;;25.10;16.05;;;8.00;99.90;;;;;;5101066;28;20127;-65
2022/04/22 05:25:29;;;;;;;26.70;16.92;;;8.10;99.90;;;;;;5099090;28;20040;-66
2022/04/22 05:27:56;;;;;;;23.88;15.50;;;8.20;99.90;;;;;;5099897;28;20525;-66
2022/04/22 05:33:10;;;;;;;27.85;17.92;;;8.40;99.90;;;;;;5093151;28;20035;-66
2022/04/22 05:35:38;;;;;;;26.27;15.40;;;8.50;99.90;;;;;;5096833;28;20047;-65
2022/04/22 05:38:06;;;;;;;25.35;15.13;;;8.60;99.90;;;;;;5091621;28;20147;-65
2022/04/22 05:40:38;;;;;;;21.05;14.35;;;8.80;99.90;;;;;;5094098;28;20092;-66
2022/04/22 05:43:07;;;;;;;20.92;13.80;;;9.00;99.90;;;;;;5094448;28;20047;-65
2022/04/22 05:45:36;;;;;;;22.33;12.75;;;9.20;99.90;;;;;;5100812;28;20414;-66
2022/04/22 05:48:05;;;;;;;21.88;14.35;;;9.30;99.90;;;;;;5093366;28;20075;-65
2022/04/22 05:50:32;;;;;;;22.70;14.27;;;9.50;99.90;;;;;;5101530;28;20081;-66
2022/04/22 05:53:00;;;;;;;20.13;13.70;;;9.60;99.90;;;;;;5101778;28;20044;-65
2022/04/22 05:55:28;;;;;;;21.17;14.40;;;9.70;99.90;;;;;;5102800;28;20071;-64
2022/04/22 05:57:57;;;;;;;24.05;14.15;;;9.90;99.90;;;;;;5093490;28;20043;-68
2022/04/22 06:00:26;;;;;;;22.83;13.38;;;9.90;99.90;;;;;;5100308;28;20051;-66
2022/04/22 06:02:56;;;;;;;21.52;14.85;;;9.90;99.90;;;;;;5103446;28;20113;-66
2022/04/22 06:05:24;;;;;;;22.05;14.50;;;10.00;99.90;;;;;;5096852;28;20047;-67
2022/04/22 06:10:31;;;;;;;20.00;13.73;;;10.20;99.90;;;;;;5096811;28;20130;-66
2022/04/22 06:10:40;;;;;;;20.00;13.98;;;10.30;99.90;;;;;;5100451;28;20039;-65
2022/04/22 06:13:08;;;;;;;19.38;13.93;;;10.40;99.90;;;;;;5096616;28;20036;-66
2022/04/22 06:15:35;;;;;;;21.95;13.60;;;10.40;99.90;;;;;;5097383;28;20051;-67
2022/04/22 06:18:03;;;;;;;19.58;13.70;;;10.50;99.90;;;;;;5098419;28;20099;-67
2022/04/22 06:20:31;;;;;;;22.58;14.65;;;10.40;99.90;;;;;;5095208;28;20044;-67
2022/04/22 06:22:58;;;;;;;22.55;15.48;;;10.50;99.90;;;;;;5096640;28;20150;-67
2022/04/22 06:25:26;;;;;;;24.52;16.13;;;10.50;99.90;;;;;;5091935;28;20341;-68
2022/04/22 06:27:53;;;;;;;21.15;14.25;;;10.50;99.90;;;;;;5095740;28;20410;-67
2022/04/22 06:30:22;;;;;;;19.17;12.93;;;10.50;99.90;;;;;;5095751;27;20066;-66
2022/04/22 06:32:52;;;;;;;21.08;14.07;;;10.40;99.90;;;;;;5105305;27;20702;-65
2022/04/22 06:35:20;;;;;;;20.40;13.75;;;10.30;99.90;;;;;;5102227;27;20070;-67
2022/04/22 06:37:50;;;;;;;20.85;14.40;;;10.30;99.90;;;;;;5098375;28;20040;-66
2022/04/22 06:45:52;;;;;;;19.00;12.98;;;10.50;99.90;;;;;;5101057;28;20048;-66
2022/04/22 06:48:26;;;;;;;20.80;13.93;;;10.50;99.90;;;;;;5106003;28;20040;-67
2022/04/22 06:51:12;;;;;;;21.15;14.63;;;10.60;99.90;;;;;;5106669;28;20049;-66
2022/04/22 06:53:40;;;;;;;17.80;13.00;;;10.60;99.90;;;;;;5108309;28;20118;-67
2022/04/22 06:56:08;;;;;;;19.48;13.60;;;10.70;99.90;;;;;;5106667;28;20455;-67
2022/04/22 06:58:37;;;;;;;18.90;13.45;;;10.70;99.90;;;;;;5107041;28;20104;-66
2022/04/22 07:01:07;;;;;;;20.17;13.77;;;10.90;99.90;;;;;;5100848;28;20073;-66
2022/04/22 07:03:56;;;;;;;20.75;14.52;;;10.80;99.90;;;;;;5093644;28;20051;-67
2022/04/22 07:06:24;;;;;;;18.58;12.63;;;10.80;99.90;;;;;;5096807;27;20463;-67
2022/04/22 07:08:52;;;;;;;22.50;13.90;;;10.90;99.90;;;;;;5108679;28;20040;-66
2022/04/22 07:11:25;;;;;;;22.10;14.40;;;10.90;99.90;;;;;;5109023;28;20051;-67
2022/04/22 07:13:58;;;;;;;18.10;13.23;;;10.90;99.90;;;;;;5106312;28;20582;-66
2022/04/22 07:16:25;;;;;;;21.10;13.13;;;11.00;99.90;;;;;;5108664;28;20047;-67
2022/04/22 07:18:53;;;;;;;20.02;13.32;;;11.00;99.90;;;;;;5111343;28;20078;-67
2022/04/22 07:21:21;;;;;;;18.15;13.20;;;11.10;99.90;;;;;;5108391;28;20048;-67
2022/04/22 07:23:49;;;;;;;20.42;14.30;;;11.30;99.90;;;;;;5103088;28;20119;-66
2022/04/22 07:26:18;;;;;;;18.48;12.80;;;11.50;99.90;;;;;;5101645;28;20039;-67
2022/04/22 07:28:50;;;;;;;17.67;12.73;;;11.70;99.90;;;;;;5095476;28;20416;-67
2022/04/22 07:31:18;;;;;;;19.45;13.05;;;11.90;99.90;;;;;;5101539;28;20039;-67
2022/04/22 07:33:47;;;;;;;19.83;12.73;;;12.00;99.90;;;;;;5109161;28;20401;-66
2022/04/22 07:36:14;;;;;;;16.58;12.05;;;12.00;99.90;;;;;;5095229;28;20534;-67
2022/04/22 07:38:44;;;;;;;23.23;15.30;;;12.10;99.90;;;;;;5097645;28;20094;-66
2022/04/22 07:41:14;;;;;;;19.13;14.63;;;12.10;99.90;;;;;;5107722;28;20147;-67
2022/04/22 07:46:46;;;;;;;20.20;13.75;;;12.20;99.90;;;;;;5105182;27;20354;-66
2022/04/22 07:49:15;;;;;;;21.73;12.93;;;12.30;99.90;;;;;;5106699;28;20461;-67
2022/04/22 07:51:43;;;;;;;19.10;12.32;;;12.30;99.90;;;;;;5094485;28;20051;-67
2022/04/22 07:54:12;;;;;;;18.75;12.98;;;12.50;99.90;;;;;;5108042;28;20136;-67
2022/04/22 07:56:41;;;;;;;19.27;13.18;;;12.60;99.90;;;;;;5100571;28;20051;-66
2022/04/22 07:59:10;;;;;;;17.38;12.65;;;12.70;99.90;;;;;;5113337;27;20214;-67
2022/04/22 08:01:38;;;;;;;19.30;13.98;;;12.60;99.90;;;;;;5096520;28;20061;-67
2022/04/22 08:04:06;;;;;;;17.15;12.32;;;12.70;99.90;;;;;;5091647;28;20101;-67
2022/04/22 08:06:34;;;;;;;19.15;12.40;;;12.80;99.90;;;;;;5098021;27;20370;-67
2022/04/22 08:09:02;;;;;;;18.27;11.65;;;13.00;99.90;;;;;;5097571;28;20048;-67
2022/04/22 08:11:30;;;;;;;19.02;12.30;;;13.10;99.90;;;;;;5099704;28;20372;-67
2022/04/22 08:13:59;;;;;;;17.17;12.38;;;13.20;99.90;;;;;;5105134;27;20444;-66
2022/04/22 08:16:26;;;;;;;19.20;12.18;;;13.20;99.90;;;;;;5099767;28;20040;-67
2022/04/22 08:18:54;;;;;;;20.45;12.00;;;13.30;99.90;;;;;;5113808;28;20044;-67
2022/04/22 08:21:32;;;;;;;16.08;11.45;;;13.50;99.90;;;;;;5106630;28;20050;-66
2022/04/22 08:24:01;;;;;;;16.10;11.10;;;13.50;99.90;;;;;;5114140;28;20047;-66
2022/04/22 08:26:31;;;;;;;20.10;11.68;;;13.60;99.90;;;;;;5104180;27;20044;-67
2022/04/22 08:28:58;;;;;;;15.75;11.70;;;13.60;99.90;;;;;;5090487;28;20121;-67
2022/04/22 08:31:26;;;;;;;18.48;12.45;;;13.70;99.90;;;;;;5090922;28;20089;-66
2022/04/22 08:33:56;;;;;;;18.48;12.80;;;13.80;99.90;;;;;;5094094;28;20104;-67
2022/04/22 08:36:28;;;;;;;20.05;11.88;;;13.80;99.90;;;;;;5091648;28;20123;-67
2022/04/22 08:38:59;;;;;;;16.75;11.82;;;13.90;99.90;;;;;;5099899;28;20405;-68
2022/04/22 08:41:27;;;;;;;19.95;11.80;;;13.90;99.90;;;;;;5109456;28;20451;-65
2022/04/22 08:43:59;;;;;;;14.77;10.52;;;14.10;99.90;;;;;;5096467;27;20514;-66
2022/04/22 08:52:03;;;;;;;14.98;10.98;;;14.40;99.90;;;;;;5096987;28;20510;-67
2022/04/22 08:54:35;;;;;;;17.58;12.15;;;14.40;99.90;;;;;;5064887;28;20081;-66
2022/04/22 08:57:03;;;;;;;14.30;11.23;;;14.50;99.90;;;;;;5102316;28;20075;-66
2022/04/22 08:59:30;;;;;;;15.73;11.27;;;14.70;99.90;;;;;;5097574;27;20093;-67
2022/04/22 09:01:58;;;;;;;14.05;9.88;;;14.70;99.90;;;;;;5100538;28;20526;-66
2022/04/22 09:04:27;;;;;;;13.98;9.82;;;14.80;99.90;;;;;;5106224;28;20061;-66
2022/04/22 09:06:56;;;;;;;14.55;10.93;;;14.90;99.90;;;;;;5100079;28;20039;-66
2022/04/22 09:09:24;;;;;;;15.90;10.15;;;15.00;99.90;;;;;;5109159;28;20039;-66
2022/04/22 09:12:11;;;;;;;15.02;9.40;;;15.00;99.90;;;;;;5106289;28;20036;-66
2022/04/22 09:14:56;;;;;;;15.90;10.85;;;15.20;99.90;;;;;;5094661;28;20066;-67
2022/04/22 09:17:27;;;;;;;15.43;8.85;;;15.30;99.90;;;;;;5106167;28;20422;-65
2022/04/22 09:19:59;;;;;;;14.88;9.02;;;15.50;99.90;;;;;;5102735;28;20445;-66
2022/04/22 09:22:29;;;;;;;11.10;8.73;;;15.70;99.90;;;;;;5100368;28;20035;-66
2022/04/22 09:24:59;;;;;;;13.32;9.32;;;15.90;99.90;;;;;;5105302;28;20495;-67
2022/04/22 09:27:42;;;;;;;11.90;8.93;;;16.00;99.90;;;;;;5095605;28;20360;-67
2022/04/22 09:30:11;;;;;;;12.90;9.07;;;16.00;99.90;;;;;;5102295;28;20074;-67
2022/04/22 09:32:41;;;;;;;17.45;10.43;;;16.00;99.90;;;;;;5107967;28;20064;-66
2022/04/22 09:35:17;;;;;;;13.35;9.32;;;16.00;99.90;;;;;;5109448;28;20076;-66
2022/04/22 09:43:38;;;;;;;12.93;8.73;;;16.60;99.90;;;;;;5110078;28;20047;-67
2022/04/22 09:46:27;;;;;;;12.82;8.43;;;16.90;99.90;;;;;;5107167;28;20131;-65
2022/04/22 09:48:56;;;;;;;10.45;7.78;;;17.00;99.90;;;;;;5109872;28;20044;-66
2022/04/22 09:51:28;;;;;;;14.10;9.57;;;17.20;99.90;;;;;;5099051;28;20257;-67
2022/04/22 09:54:00;;;;;;;11.73;8.27;;;17.30;99.90;;;;;;5106298;28;20669;-67
2022/04/22 09:56:28;;;;;;;10.70;8.45;;;17.30;99.90;;;;;;5102922;28;20058;-65
2022/04/22 09:58:56;;;;;;;14.10;9.15;;;17.50;99.90;;;;;;5095612;28;20040;-67
2022/04/22 10:01:26;;;;;;;12.32;8.73;;;17.60;99.90;;;;;;5101886;28;20577;-66
2022/04/22 10:04:18;;;;;;;11.85;9.10;;;17.70;99.90;;;;;;5096200;28;20040;-68
2022/04/22 10:06:47;;;;;;;12.60;8.10;;;17.60;99.90;;;;;;5100381;28;20044;-66
2022/04/22 10:09:15;;;;;;;13.90;10.98;;;17.70;99.90;;;;;;5105742;28;20395;-66
2022/04/22 10:11:47;;;;;;;15.27;11.50;;;17.80;99.90;;;;;;5095174;28;20028;-66
2022/04/22 10:14:20;;;;;;;15.40;8.65;;;18.00;99.90;;;;;;5096733;28;20569;-67
2022/04/22 10:16:49;;;;;;;13.10;7.95;;;18.20;99.90;;;;;;5088740;28;20602;-67
2022/04/22 10:19:17;;;;;;;10.73;8.27;;;18.40;99.90;;;;;;5097718;28;20043;-66
2022/04/22 10:21:49;;;;;;;14.27;9.40;;;18.40;99.90;;;;;;5107108;28;20690;-67
2022/04/22 10:24:19;;;;;;;11.93;8.25;;;18.30;99.90;;;;;;5095463;28;20496;-67
2022/04/22 10:26:48;;;;;;;13.27;7.85;;;18.50;99.90;;;;;;5106426;28;20067;-67
2022/04/22 10:29:15;;;;;;;10.63;7.70;;;18.80;99.90;;;;;;5105592;28;20242;-67
2022/04/22 10:31:44;;;;;;;10.25;6.88;;;19.00;99.90;;;;;;5100933;28;20338;-67
2022/04/22 10:34:11;;;;;;;9.15;7.00;;;19.10;99.90;;;;;;5107260;28;20044;-67
2022/04/22 10:36:40;;;;;;;10.68;7.47;;;19.20;99.90;;;;;;5102894;28;20555;-67
2022/04/22 10:39:08;;;;;;;13.90;7.65;;;19.40;99.90;;;;;;5095476;28;20073;-67
2022/04/22 10:41:48;;;;;;;12.30;9.18;;;19.10;99.90;;;;;;5102521;27;20044;-67
2022/04/22 10:47:13;;;;;;;13.32;7.40;;;19.60;99.90;;;;;;5088833;28;20555;-67
2022/04/22 10:49:43;;;;;;;10.05;7.25;;;19.50;99.90;;;;;;5087371;28;20043;-65
2022/04/22 10:52:18;;;;;;;10.98;6.90;;;19.90;99.90;;;;;;5085495;28;20040;-66
2022/04/22 10:54:51;;;;;;;9.60;6.60;;;20.20;99.90;;;;;;5089416;28;20123;-67
2022/04/22 10:57:29;;;;;;;9.63;7.43;;;20.70;99.90;;;;;;5090859;28;20058;-67
2022/04/22 11:00:11;;;;;;;12.00;6.68;;;20.90;99.90;;;;;;5099636;28;20145;-66
2022/04/22 11:02:41;;;;;;;11.05;7.85;;;21.10;99.90;;;;;;5097701;28;20047;-67
2022/04/22 11:05:20;;;;;;;10.98;7.00;;;21.10;99.90;;;;;;5110445;28;20094;-66
2022/04/22 11:07:51;;;;;;;10.40;7.00;;;21.50;99.90;;;;;;5103942;28;20061;-66
2022/04/22 11:10:19;;;;;;;8.73;7.28;;;22.20;98.60;;;;;;5109424;28;20526;-66
2022/04/22 11:12:56;;;;;;;12.73;8.43;;;22.30;97.60;;;;;;5102839;28;20457;-66
2022/04/22 11:15:42;;;;;;;8.57;5.95;;;22.20;96.90;;;;;;5092041;28;20479;-66
2022/04/22 11:18:10;;;;;;;9.27;6.68;;;22.50;96.10;;;;;;5103197;28;20146;-67
2022/04/22 11:20:38;;;;;;;8.95;6.28;;;22.30;95.90;;;;;;5104933;28;20048;-66
2022/04/22 11:23:06;;;;;;;7.40;5.80;;;22.20;95.70;;;;;;5092610;28;20167;-67
2022/04/22 11:25:34;;;;;;;9.70;6.18;;;22.50;95.40;;;;;;5110866;28;20043;-66
2022/04/22 11:28:02;;;;;;;7.65;5.70;;;22.70;94.90;;;;;;5108728;28;20050;-66
2022/04/22 11:30:32;;;;;;;9.02;5.78;;;22.60;94.50;;;;;;5105924;28;20466;-65
2022/04/22 11:33:20;;;;;;;8.90;5.30;;;22.40;94.50;;;;;;5108310;28;20043;-68
2022/04/22 11:35:53;;;;;;;9.18;6.20;;;22.70;94.50;;;;;;5103339;28;20553;-66
2022/04/22 11:38:21;;;;;;;7.68;5.60;;;23.10;93.70;;;;;;5110723;28;20047;-67
2022/04/22 11:40:51;;;;;;;8.68;5.65;;;23.10;93.30;;;;;;5109313;28;20051;-67
2022/04/22 11:43:20;;;;;;;8.30;5.80;;;23.30;93.00;;;;;;5103946;28;20051;-66
2022/04/22 11:45:49;;;;;;;10.43;5.97;;;23.70;92.30;;;;;;5110981;28;20092;-66
2022/04/22 11:48:21;;;;;;;7.97;5.40;;;23.40;92.10;;;;;;5103006;28;20047;-67
2022/04/22 11:50:48;;;;;;;9.25;5.40;;;23.60;92.00;;;;;;5105240;28;20043;-66
2022/04/22 11:53:26;;;;;;;7.53;5.50;;;24.00;91.70;;;;;;5107727;28;20116;-66
2022/04/22 11:55:54;;;;;;;7.78;5.38;;;24.10;91.10;;;;;;5107476;28;20134;-67
2022/04/22 11:58:27;;;;;;;10.82;5.90;;;24.70;90.80;;;;;;5106020;27;20486;-67
2022/04/22 12:06:32;;;;;;;6.38;4.60;;;25.10;87.00;;;;;;5095643;28;20079;-67
2022/04/22 12:09:03;;;;;;;6.38;4.40;;;25.70;84.80;;;;;;5091888;28;20040;-67
2022/04/22 12:11:39;;;;;;;8.83;4.70;;;25.80;83.60;;;;;;5091786;28;20041;-67
2022/04/22 12:14:06;;;;;;;7.72;5.30;;;26.50;82.60;;;;;;5092802;27;20416;-67
2022/04/22 12:16:33;;;;;;;7.78;4.55;;;25.80;82.30;;;;;;5092022;28;20584;-65
2022/04/22 12:19:01;;;;;;;7.68;4.70;;;25.70;82.20;;;;;;5108699;28;20454;-65
2022/04/22 12:21:35;;;;;;;7.43;4.18;;;26.30;81.70;;;;;;5108534;28;20502;-66
2022/04/22 12:24:03;;;;;;;8.23;4.68;;;26.90;79.10;;;;;;5109775;28;20384;-66
2022/04/22 12:26:44;;;;;;;8.07;4.38;;;26.90;78.40;;;;;;5109524;28;20135;-67
2022/04/22 12:29:14;;;;;;;5.82;4.10;;;27.70;76.70;;;;;;5108418;28;20520;-66
2022/04/22 12:31:51;;;;;;;8.05;4.68;;;28.20;75.20;;;;;;5108513;28;20039;-66
2022/04/22 12:34:28;;;;;;;7.50;4.43;;;28.70;73.30;;;;;;5108689;28;20072;-66
2022/04/22 12:37:00;;;;;;;7.55;4.25;;;28.30;72.30;;;;;;5101541;28;20076;-67
2022/04/22 12:39:39;;;;;;;6.38;4.53;;;28.40;72.30;;;;;;5087214;28;20560;-67
2022/04/22 12:42:27;;;;;;;6.60;4.57;;;27.90;72.00;;;;;;5086972;28;20077;-66
2022/04/22 12:53:48;;;;;;;7.47;4.78;;;28.70;70.00;;;;;;5095579;28;20043;-66
2022/04/22 12:56:16;;;;;;;6.50;4.97;;;28.60;68.10;;;;;;5098110;28;20039;-66
2022/04/22 12:58:53;;;;;;;6.70;4.00;;;28.50;67.90;;;;;;5106013;27;20040;-67
2022/04/22 13:01:21;;;;;;;7.18;4.65;;;28.20;68.50;;;;;;5089445;28;20455;-67
2022/04/22 13:03:49;;;;;;;6.63;4.47;;;28.60;68.30;;;;;;5089656;28;20089;-68
2022/04/22 13:06:35;;;;;;;7.15;4.30;;;29.60;67.50;;;;;;5092408;28;20139;-66
2022/04/22 13:09:02;;;;;;;7.88;4.88;;;29.80;66.30;;;;;;5098262;28;20050;-67
2022/04/22 13:11:30;;;;;;;7.30;4.93;;;30.70;64.90;;;;;;5086667;28;20068;-66
2022/04/22 13:13:57;;;;;;;7.50;5.07;;;30.80;64.30;;;;;;5091271;28;20058;-66
2022/04/22 13:16:24;;;;;;;8.00;4.85;;;30.20;64.80;;;;;;5086363;28;20584;-66
2022/04/22 13:18:52;;;;;;;6.20;4.38;;;30.70;63.30;;;;;;5090528;28;20036;-67
2022/04/22 13:21:19;;;;;;;7.60;4.53;;;31.00;62.40;;;;;;5086432;28;20048;-66
2022/04/22 13:23:47;;;;;;;7.25;5.03;;;30.70;62.10;;;;;;5090008;28;20130;-68
2022/04/22 13:26:14;;;;;;;7.60;4.43;;;31.10;61.50;;;;;;5091037;27;20131;-66
2022/04/22 13:28:41;;;;;;;7.00;4.75;;;31.50;60.00;;;;;;5102940;28;20545;-67
2022/04/22 13:31:09;;;;;;;8.07;4.72;;;31.90;59.60;;;;;;5099254;28;20116;-67
2022/04/22 13:33:36;;;;;;;8.85;4.88;;;32.70;58.80;;;;;;5089950;28;20058;-67
2022/04/22 13:36:04;;;;;;;8.25;4.78;;;34.40;57.50;;;;;;5092894;28;20047;-66
2022/04/22 13:38:32;;;;;;;6.60;4.75;;;35.30;56.00;;;;;;5088871;28;20055;-66
2022/04/22 13:41:01;;;;;;;9.23;5.40;;;35.00;54.40;;;;;;5085837;28;20119;-66
2022/04/22 13:43:30;;;;;;;5.68;4.28;;;34.00;54.80;;;;;;5085739;28;20477;-67
2022/04/22 13:54:17;;;;;;;8.32;4.95;;;30.10;57.90;;;;;;5090304;28;20036;-66
2022/04/22 13:56:45;;;;;;;9.80;5.78;;;29.70;58.30;;;;;;5086117;28;20101;-67
2022/04/22 13:59:12;;;;;;;8.32;5.25;;;28.60;59.50;;;;;;5107719;28;20052;-67